createdAt,value
2019-01-23T00:01:21.690Z,40.00
2019-01-23T00:03:49.892Z,36.83
2019-01-23T00:06:18.035Z,41.77
2019-01-23T00:08:46.089Z,44.07
2019-01-23T00:11:14.235Z,43.43
2019-01-23T00:13:47.530Z,44.30
2019-01-23T00:16:18.283Z,42.67
2019-01-23T00:18:46.370Z,39.23
2019-01-23T00:21:14.395Z,41.63
2019-01-23T00:23:44.211Z,38.43
2019-01-23T00:26:12.391Z,43.53
2019-01-23T00:28:42.385Z,39.93
2019-01-23T00:31:10.478Z,39.30
2019-01-23T00:33:41.237Z,41.30
2019-01-23T00:36:09.537Z,40.80
2019-01-23T00:38:40.082Z,42.63
2019-01-23T00:41:08.114Z,39.67
2019-01-23T00:43:36.301Z,45.13
2019-01-23T00:46:04.578Z,42.70
2019-01-23T00:48:32.840Z,37.07
2019-01-23T00:51:01.026Z,36.47
2019-01-23T00:53:29.031Z,45.33
2019-01-23T00:55:57.005Z,38.53
2019-01-23T00:58:25.680Z,45.40
2019-01-23T01:00:57.918Z,42.43
2019-01-23T01:03:25.896Z,39.07
2019-01-23T01:05:54.622Z,39.57
2019-01-23T01:08:24.120Z,44.00
2019-01-23T01:10:52.926Z,42.73
2019-01-23T01:13:21.005Z,43.57
2019-01-23T01:15:49.146Z,44.30
2019-01-23T01:18:17.414Z,38.10
2019-01-23T01:20:45.500Z,41.73
2019-01-23T01:23:14.293Z,40.70
2019-01-23T01:25:42.267Z,38.97
2019-01-23T01:28:11.564Z,39.03
2019-01-23T01:30:40.034Z,43.17
2019-01-23T01:33:09.447Z,42.40
2019-01-23T01:35:37.447Z,41.83
2019-01-23T01:38:05.313Z,41.87
2019-01-23T01:40:34.554Z,42.13
2019-01-23T01:43:02.864Z,39.97
2019-01-23T01:45:30.910Z,45.03
2019-01-23T01:47:59.263Z,47.57
2019-01-23T01:50:27.348Z,41.60
2019-01-23T01:52:55.207Z,43.77
2019-01-23T01:55:23.664Z,48.70
2019-01-23T01:57:56.583Z,44.67
2019-01-23T02:00:25.124Z,42.70
2019-01-23T02:02:53.194Z,46.47
2019-01-23T02:05:22.794Z,40.07
2019-01-23T02:07:51.055Z,41.87
2019-01-23T02:10:20.629Z,49.20
2019-01-23T02:12:49.303Z,45.40
2019-01-23T02:15:19.226Z,41.60
2019-01-23T02:17:49.459Z,41.17
2019-01-23T02:20:27.742Z,41.97
2019-01-23T02:22:56.308Z,42.80
2019-01-23T02:25:24.454Z,47.00
2019-01-23T02:27:53.398Z,48.13
2019-01-23T02:30:23.952Z,47.53
2019-01-23T02:32:51.834Z,46.60
2019-01-23T02:35:19.924Z,46.67
2019-01-23T02:37:47.935Z,43.37
2019-01-23T02:40:18.754Z,40.90
2019-01-23T02:42:47.042Z,44.03
2019-01-23T02:45:15.567Z,46.87
2019-01-23T02:47:44.122Z,50.10
2019-01-23T02:50:13.398Z,48.47
2019-01-23T02:52:44.410Z,45.63
2019-01-23T02:55:12.502Z,49.57
2019-01-23T02:57:40.797Z,49.23
2019-01-23T03:00:15.880Z,46.20
2019-01-23T03:02:43.850Z,45.37
2019-01-23T03:05:16.117Z,48.27
2019-01-23T03:07:44.350Z,48.40
2019-01-23T03:10:15.298Z,50.67
2019-01-23T03:12:44.485Z,50.40
2019-01-23T03:15:13.153Z,49.60
2019-01-23T03:17:41.110Z,46.63
2019-01-23T03:20:13.225Z,46.60
2019-01-23T03:22:42.142Z,44.23
2019-01-23T03:25:10.917Z,44.13
2019-01-23T03:27:39.061Z,52.90
2019-01-23T03:30:21.277Z,53.33
2019-01-23T03:32:49.691Z,45.23
2019-01-23T03:35:17.869Z,50.63
2019-01-23T03:37:46.470Z,48.63
2019-01-23T03:40:17.607Z,47.17
2019-01-23T03:42:46.097Z,47.53
2019-01-23T03:45:15.562Z,46.00
2019-01-23T03:47:43.944Z,49.70
2019-01-23T03:50:16.095Z,45.17
2019-01-23T03:52:44.491Z,47.33
2019-01-23T03:55:13.743Z,43.73
2019-01-23T03:57:41.918Z,41.37
2019-01-23T04:00:13.419Z,48.23
2019-01-23T04:02:42.942Z,44.70
2019-01-23T04:05:13.070Z,46.80
2019-01-23T04:07:40.969Z,44.97
2019-01-23T04:10:13.165Z,46.10
2019-01-23T04:12:41.206Z,49.80
2019-01-23T04:15:10.989Z,47.20
2019-01-23T04:17:38.999Z,49.40
2019-01-23T04:20:11.479Z,51.60
2019-01-23T04:22:39.756Z,46.00
2019-01-23T04:25:10.005Z,49.97
2019-01-23T04:27:38.357Z,48.53
2019-01-23T04:30:09.524Z,54.97
2019-01-23T04:32:39.605Z,46.73
2019-01-23T04:35:07.573Z,47.30
2019-01-23T04:37:35.426Z,47.87
2019-01-23T04:40:05.401Z,52.43
2019-01-23T04:42:33.203Z,45.23
2019-01-23T04:45:01.113Z,55.53
2019-01-23T04:47:29.115Z,50.17
2019-01-23T04:49:57.103Z,46.50
2019-01-23T04:52:39.831Z,58.33
2019-01-23T04:55:08.481Z,60.90
2019-01-23T04:57:36.392Z,52.03
2019-01-23T05:00:06.260Z,54.97
2019-01-23T05:02:34.360Z,60.43
2019-01-23T05:05:02.603Z,61.87
2019-01-23T05:07:31.148Z,53.03
2019-01-23T05:09:59.409Z,61.30
2019-01-23T05:12:27.252Z,60.13
2019-01-23T05:14:55.250Z,66.33
2019-01-23T05:17:23.131Z,72.90
2019-01-23T05:19:51.051Z,64.03
2019-01-23T05:22:19.028Z,60.67
2019-01-23T05:24:46.844Z,68.17
2019-01-23T05:27:14.858Z,63.20
2019-01-23T05:29:42.931Z,63.17
2019-01-23T05:32:10.936Z,72.00
2019-01-23T05:34:38.844Z,70.57
2019-01-23T05:37:06.792Z,71.60
2019-01-23T05:39:34.607Z,68.10
2019-01-23T05:42:02.597Z,60.50
2019-01-23T05:44:30.457Z,68.20
2019-01-23T05:46:59.078Z,73.17
2019-01-23T05:49:27.068Z,79.83
2019-01-23T05:51:54.934Z,74.23
2019-01-23T05:54:22.887Z,71.30
2019-01-23T05:56:50.855Z,68.80
2019-01-23T05:59:18.790Z,77.10
2019-01-23T06:01:48.041Z,73.50
2019-01-23T06:04:16.286Z,76.87
2019-01-23T06:06:44.200Z,78.63
2019-01-23T06:09:12.232Z,66.47
2019-01-23T06:11:40.072Z,84.23
2019-01-23T06:14:08.028Z,75.97
2019-01-23T06:16:35.899Z,80.17
2019-01-23T06:19:03.691Z,82.43
2019-01-23T06:21:31.693Z,71.83
2019-01-23T06:23:59.632Z,88.40
2019-01-23T06:26:27.476Z,70.57
2019-01-23T06:28:55.353Z,74.87
2019-01-23T06:31:23.456Z,78.03
2019-01-23T06:33:51.679Z,73.53
2019-01-23T06:36:20.445Z,67.43
2019-01-23T06:38:48.438Z,76.40
2019-01-23T06:41:16.397Z,79.47
2019-01-23T06:43:44.414Z,74.40
2019-01-23T06:46:13.639Z,81.13
2019-01-23T06:48:41.987Z,82.33
2019-01-23T06:51:09.932Z,84.07
2019-01-23T06:53:38.143Z,81.67
2019-01-23T06:56:06.004Z,78.53
2019-01-23T06:58:33.996Z,86.73
2019-01-23T07:01:01.970Z,81.23
2019-01-23T07:03:29.831Z,75.90
2019-01-23T07:05:57.651Z,74.63
2019-01-23T07:08:25.981Z,82.27
2019-01-23T07:10:53.798Z,75.80
2019-01-23T07:13:22.074Z,95.13
2019-01-23T07:15:49.955Z,86.73
2019-01-23T07:18:18.161Z,102.57
2019-01-23T07:20:46.123Z,82.30
2019-01-23T07:23:14.024Z,100.80
2019-01-23T07:25:42.044Z,89.00
2019-01-23T07:28:10.380Z,91.37
2019-01-23T07:30:41.012Z,92.60
2019-01-23T07:33:09.004Z,82.87
2019-01-23T07:35:39.599Z,92.50
2019-01-23T07:38:07.729Z,90.47
2019-01-23T07:40:35.682Z,84.63
2019-01-23T07:43:03.859Z,85.97
2019-01-23T07:45:32.072Z,92.40
2019-01-23T07:48:01.493Z,89.60
2019-01-23T07:50:29.386Z,103.13
2019-01-23T07:52:57.308Z,87.83
2019-01-23T07:55:25.255Z,96.67
2019-01-23T07:57:53.148Z,91.10
2019-01-23T08:00:22.634Z,100.80
2019-01-23T08:02:50.623Z,99.33
2019-01-23T08:05:21.662Z,83.30
2019-01-23T08:07:51.867Z,99.10
2019-01-23T08:10:20.920Z,108.73
2019-01-23T08:12:48.843Z,83.83
2019-01-23T08:15:28.817Z,104.53
2019-01-23T08:17:56.781Z,88.77
2019-01-23T08:20:25.409Z,117.10
2019-01-23T08:22:53.227Z,91.20
2019-01-23T08:25:21.122Z,105.23
2019-01-23T08:27:49.048Z,89.63
2019-01-23T08:30:19.237Z,97.33
2019-01-23T08:32:47.090Z,95.83
2019-01-23T08:35:15.896Z,90.47
2019-01-23T08:37:43.929Z,101.00
2019-01-23T08:40:19.412Z,96.07
2019-01-23T08:42:51.246Z,91.27
2019-01-23T08:45:22.571Z,91.33
2019-01-23T08:47:50.520Z,88.37
2019-01-23T08:50:28.681Z,93.97
2019-01-23T08:52:57.268Z,94.00
2019-01-23T08:55:25.119Z,85.53
2019-01-23T08:57:53.099Z,86.57
2019-01-23T09:00:20.956Z,84.97
2019-01-23T09:02:49.024Z,85.70
2019-01-23T09:05:17.009Z,83.17
2019-01-23T09:07:46.834Z,88.53
2019-01-23T09:10:18.285Z,93.30
2019-01-23T09:12:46.245Z,93.03
2019-01-23T09:15:15.016Z,88.97
2019-01-23T09:17:43.062Z,86.70
2019-01-23T09:20:12.039Z,82.60
2019-01-23T09:22:40.092Z,88.40
2019-01-23T09:25:11.087Z,87.80
2019-01-23T09:27:39.006Z,84.57
2019-01-23T09:30:16.337Z,84.30
2019-01-23T09:33:55.933Z,77.10
2019-01-23T09:37:19.874Z,79.77
2019-01-23T09:41:08.337Z,80.77
2019-01-23T09:44:29.319Z,82.17
2019-01-23T09:48:06.193Z,77.37
2019-01-23T09:51:23.121Z,78.20
2019-01-23T09:54:04.349Z,73.03
2019-01-23T09:56:32.250Z,70.20
2019-01-23T09:59:02.747Z,68.27
2019-01-23T10:01:29.844Z,64.50
2019-01-23T10:03:57.613Z,65.57
2019-01-23T10:06:25.552Z,65.30
2019-01-23T10:08:53.346Z,60.33
2019-01-23T10:11:21.255Z,63.87
2019-01-23T10:13:58.772Z,69.33
2019-01-23T10:16:26.718Z,66.83
2019-01-23T10:18:56.160Z,62.83
2019-01-23T10:21:24.862Z,61.33
2019-01-23T10:23:52.653Z,69.20
2019-01-23T10:26:20.541Z,61.70
2019-01-23T10:28:48.404Z,62.10
2019-01-23T10:31:16.473Z,63.70
2019-01-23T10:33:44.231Z,58.47
2019-01-23T10:36:12.116Z,55.03
2019-01-23T10:38:39.983Z,58.90
2019-01-23T10:41:07.758Z,59.47
2019-01-23T10:43:35.534Z,62.13
2019-01-23T10:46:03.438Z,56.20
2019-01-23T10:48:37.810Z,66.10
2019-01-23T10:51:01.144Z,59.13
2019-01-23T10:53:28.906Z,62.17
2019-01-23T10:55:56.689Z,61.03
2019-01-23T10:58:24.609Z,62.20
2019-01-23T11:00:52.487Z,57.33
2019-01-23T11:03:20.263Z,56.93
2019-01-23T11:05:48.207Z,62.30
2019-01-23T11:08:15.992Z,58.90
2019-01-23T11:10:43.768Z,63.50
2019-01-23T11:13:11.686Z,56.83
2019-01-23T11:15:39.489Z,55.37
2019-01-23T11:18:07.392Z,56.97
2019-01-23T11:20:35.376Z,55.73
2019-01-23T11:23:03.186Z,59.23
2019-01-23T11:25:31.084Z,51.93
2019-01-23T11:27:58.862Z,53.57
2019-01-23T11:30:26.791Z,57.37
2019-01-23T11:32:54.771Z,51.00
2019-01-23T11:35:22.993Z,52.33
2019-01-23T11:37:51.068Z,49.47
2019-01-23T11:40:23.068Z,52.13
2019-01-23T11:42:50.998Z,47.30
2019-01-23T11:45:18.833Z,51.30
2019-01-23T11:47:46.825Z,52.10
2019-01-23T11:50:21.160Z,49.60
2019-01-23T11:52:45.034Z,48.50
2019-01-23T11:55:13.268Z,51.90
2019-01-23T11:57:41.186Z,50.37
2019-01-23T12:00:14.390Z,49.90
2019-01-23T12:02:42.308Z,52.77
2019-01-23T12:05:12.853Z,50.33
2019-01-23T12:07:40.866Z,51.90
2019-01-23T12:10:13.037Z,60.50
2019-01-23T12:12:40.829Z,50.20
2019-01-23T12:15:10.850Z,46.87
2019-01-23T12:17:39.231Z,55.37
2019-01-23T12:20:07.817Z,49.23
2019-01-23T12:22:35.759Z,46.87
2019-01-23T12:25:05.127Z,52.80
2019-01-23T12:27:32.924Z,48.90
2019-01-23T12:30:00.824Z,55.63
2019-01-23T12:32:28.787Z,51.00
2019-01-23T12:34:56.766Z,45.37
2019-01-23T12:37:24.711Z,47.77
2019-01-23T12:39:52.646Z,49.20
2019-01-23T12:42:20.576Z,55.20
2019-01-23T12:44:48.399Z,51.33
2019-01-23T12:47:16.310Z,47.03
2019-01-23T12:49:44.134Z,53.87
2019-01-23T12:52:11.961Z,47.57
2019-01-23T12:54:39.845Z,50.30
2019-01-23T12:57:07.657Z,56.10
2019-01-23T12:59:35.573Z,49.57
2019-01-23T13:02:09.592Z,48.90
2019-01-23T13:04:33.313Z,50.40
2019-01-23T13:07:01.228Z,43.30
2019-01-23T13:09:29.023Z,49.10
2019-01-23T13:11:57.274Z,49.00
2019-01-23T13:14:25.236Z,45.20
2019-01-23T13:16:53.039Z,46.90
2019-01-23T13:19:23.438Z,46.17
2019-01-23T13:21:51.296Z,50.33
2019-01-23T13:24:19.197Z,45.77
2019-01-23T13:26:46.973Z,45.37
2019-01-23T13:29:14.785Z,43.13
2019-01-23T13:31:48.920Z,43.80
2019-01-23T13:34:12.456Z,49.17
2019-01-23T13:36:40.418Z,47.97
2019-01-23T13:39:14.574Z,46.10
2019-01-23T13:41:42.380Z,46.33
2019-01-23T13:44:10.322Z,48.30
2019-01-23T13:46:38.142Z,47.43
2019-01-23T13:49:05.973Z,44.40
2019-01-23T13:51:33.863Z,39.23
2019-01-23T13:54:01.771Z,42.83
2019-01-23T13:56:29.678Z,42.90
2019-01-23T13:58:57.581Z,40.10
2019-01-23T14:01:25.366Z,41.60
2019-01-23T14:03:53.253Z,39.00
2019-01-23T14:06:21.037Z,39.30
2019-01-23T14:08:48.925Z,38.60
2019-01-23T14:11:16.830Z,37.97
2019-01-23T14:13:44.618Z,36.53
2019-01-23T14:16:12.475Z,37.87
2019-01-23T14:18:40.464Z,39.90
2019-01-23T14:21:08.252Z,40.40
2019-01-23T14:23:36.033Z,38.10
2019-01-23T14:26:04.346Z,39.27
2019-01-23T14:28:32.143Z,39.57
2019-01-23T14:30:59.935Z,39.97
2019-01-23T14:33:27.814Z,41.80
2019-01-23T14:35:55.631Z,45.47
2019-01-23T14:38:23.433Z,42.27
2019-01-23T14:40:51.389Z,44.07
2019-01-23T14:43:19.308Z,45.83
2019-01-23T14:45:47.232Z,46.83
2019-01-23T14:48:15.030Z,50.23
2019-01-23T14:50:42.828Z,45.33
2019-01-23T14:53:10.714Z,46.60
2019-01-23T14:55:38.519Z,44.93
2019-01-23T14:58:06.291Z,41.70
2019-01-23T15:00:34.276Z,48.47
2019-01-23T15:03:02.168Z,47.20
2019-01-23T15:05:30.169Z,51.57
2019-01-23T15:07:58.094Z,50.63
2019-01-23T15:10:28.209Z,48.67
2019-01-23T15:12:56.008Z,44.50
2019-01-23T15:15:24.058Z,43.00
2019-01-23T15:17:52.291Z,40.73
2019-01-23T15:20:24.026Z,45.40
2019-01-23T15:22:51.965Z,41.77
2019-01-23T15:25:20.017Z,43.87
2019-01-23T15:27:47.811Z,42.93
2019-01-23T15:30:17.991Z,45.33
2019-01-23T15:32:45.903Z,45.70
2019-01-23T15:35:14.736Z,41.63
2019-01-23T15:37:42.539Z,43.80
2019-01-23T15:40:20.881Z,44.83
2019-01-23T15:42:48.714Z,41.97
2019-01-23T15:45:16.896Z,46.30
2019-01-23T15:47:44.762Z,50.63
2019-01-23T15:50:16.158Z,46.43
2019-01-23T15:52:43.956Z,47.73
2019-01-23T15:55:13.945Z,53.97
2019-01-23T15:57:41.752Z,51.50
2019-01-23T16:00:17.649Z,44.87
2019-01-23T16:02:45.476Z,50.10
2019-01-23T16:05:13.740Z,50.13
2019-01-23T16:07:41.601Z,51.10
2019-01-23T16:10:12.580Z,49.53
2019-01-23T16:12:40.372Z,52.43
2019-01-23T16:15:09.368Z,52.47
2019-01-23T16:17:37.209Z,53.10
2019-01-23T16:20:06.100Z,47.97
2019-01-23T16:22:33.880Z,50.73
2019-01-23T16:25:03.504Z,49.87
2019-01-23T16:27:31.395Z,54.20
2019-01-23T16:29:59.238Z,45.40
2019-01-23T16:32:31.443Z,53.07
2019-01-23T16:34:56.918Z,46.20
2019-01-23T16:37:24.839Z,45.40
2019-01-23T16:39:52.678Z,46.67
2019-01-23T16:42:20.620Z,47.60
2019-01-23T16:44:48.436Z,46.13
2019-01-23T16:47:16.355Z,49.03
2019-01-23T16:49:47.747Z,45.67
2019-01-23T16:52:15.700Z,44.73
2019-01-23T16:54:43.594Z,49.37
2019-01-23T16:57:11.700Z,51.07
2019-01-23T16:59:39.484Z,50.70
2019-01-23T17:02:07.375Z,43.90
2019-01-23T17:04:35.147Z,51.37
2019-01-23T17:07:03.469Z,51.33
2019-01-23T17:09:31.334Z,49.77
2019-01-23T17:11:59.548Z,53.10
2019-01-23T17:14:27.656Z,51.77
2019-01-23T17:16:55.599Z,48.57
2019-01-23T17:19:23.438Z,49.80
2019-01-23T17:21:51.387Z,49.57
2019-01-23T17:24:19.265Z,53.53
2019-01-23T17:26:47.228Z,51.30
2019-01-23T17:29:15.392Z,54.33
2019-01-23T17:31:43.435Z,46.63
2019-01-23T17:34:11.269Z,50.23
2019-01-23T17:36:39.198Z,47.60
2019-01-23T17:39:09.186Z,49.07
2019-01-23T17:41:37.067Z,44.80
2019-01-23T17:44:05.459Z,47.20
2019-01-23T17:46:33.311Z,54.83
2019-01-23T17:49:01.167Z,48.77
2019-01-23T17:51:29.053Z,48.17
2019-01-23T17:53:56.842Z,45.27
2019-01-23T17:56:24.648Z,49.50
2019-01-23T17:58:52.551Z,43.77
2019-01-23T18:01:20.343Z,53.53
2019-01-23T18:03:48.120Z,44.30
2019-01-23T18:06:16.059Z,48.23
2019-01-23T18:08:43.917Z,48.23
2019-01-23T18:11:11.851Z,49.83
2019-01-23T18:13:39.627Z,45.07
2019-01-23T18:16:11.752Z,48.83
2019-01-23T18:18:39.661Z,48.07
2019-01-23T18:21:07.572Z,49.37
2019-01-23T18:23:35.439Z,46.37
2019-01-23T18:26:03.841Z,40.13
2019-01-23T18:28:31.757Z,48.30
2019-01-23T18:31:22.516Z,52.30
2019-01-23T18:34:22.780Z,48.67
2019-01-23T18:37:06.154Z,47.17
2019-01-23T18:39:55.957Z,54.53
2019-01-23T18:43:21.961Z,48.83
2019-01-23T18:46:47.876Z,50.10
2019-01-23T18:50:05.889Z,51.17
2019-01-23T18:52:33.743Z,50.13
2019-01-23T18:55:01.771Z,50.43
2019-01-23T18:57:31.047Z,46.83
2019-01-23T18:59:59.343Z,46.10
2019-01-23T19:02:27.866Z,52.17
2019-01-23T19:04:57.111Z,51.63
2019-01-23T19:07:25.036Z,52.97
2019-01-23T19:09:57.077Z,44.40
2019-01-23T19:12:25.114Z,49.43
2019-01-23T19:14:53.154Z,56.40
2019-01-23T19:17:21.232Z,51.97
2019-01-23T19:19:51.119Z,55.20
2019-01-23T19:22:19.429Z,47.23
2019-01-23T19:24:47.362Z,51.70
2019-01-23T19:27:15.478Z,47.83
2019-01-23T19:29:43.334Z,49.20
2019-01-23T19:34:40.419Z,34.73
2019-01-23T19:37:08.349Z,42.00
2019-01-23T19:39:36.776Z,45.23
2019-01-23T19:42:06.264Z,42.47
2019-01-23T19:44:35.560Z,41.53
2019-01-23T19:47:04.319Z,43.80
2019-01-23T19:49:32.229Z,48.73
2019-01-23T19:52:03.404Z,40.87
2019-01-23T19:54:31.389Z,42.53
2019-01-23T19:56:59.275Z,47.10
2019-01-23T19:59:29.332Z,47.77
2019-01-23T20:01:57.314Z,49.43
2019-01-23T20:04:27.330Z,46.03
2019-01-23T20:06:58.541Z,51.87
2019-01-23T20:09:26.378Z,45.57
2019-01-23T20:11:56.517Z,51.67
2019-01-23T20:14:25.215Z,47.60
2019-01-23T20:16:53.084Z,47.87
2019-01-23T20:19:20.909Z,55.40
2019-01-23T20:21:48.945Z,53.00
2019-01-23T20:24:16.951Z,52.57
2019-01-23T20:26:46.644Z,55.63
2019-01-23T20:29:14.502Z,58.33
2019-01-23T20:31:42.490Z,53.70
2019-01-23T20:34:10.590Z,55.70
2019-01-23T20:36:38.707Z,56.07
2019-01-23T20:39:09.859Z,57.30
2019-01-23T20:41:38.882Z,65.50
2019-01-23T20:44:06.807Z,62.20
2019-01-23T20:46:34.878Z,60.97
2019-01-23T20:49:02.886Z,58.83
2019-01-23T20:51:31.223Z,64.00
2019-01-23T20:53:59.532Z,60.80
2019-01-23T20:56:27.979Z,62.63
2019-01-23T20:58:56.149Z,60.27
2019-01-23T21:01:25.394Z,65.33
2019-01-23T21:03:53.431Z,57.20
2019-01-23T21:06:21.378Z,62.00
2019-01-23T21:08:50.716Z,64.23
2019-01-23T21:11:18.670Z,62.80
2019-01-23T21:13:46.550Z,63.67
2019-01-23T21:16:14.345Z,56.13
2019-01-23T21:18:42.346Z,64.20
2019-01-23T21:21:11.470Z,59.60
2019-01-23T21:23:39.354Z,62.07
2019-01-23T21:26:07.377Z,61.03
2019-01-23T21:28:35.231Z,62.40
2019-01-23T21:31:03.048Z,59.37
2019-01-23T21:33:31.162Z,62.20
2019-01-23T21:35:59.029Z,60.00
2019-01-23T21:38:26.990Z,65.47
2019-01-23T21:40:55.561Z,66.20
2019-01-23T21:43:23.725Z,62.97
2019-01-23T21:45:51.767Z,61.10
2019-01-23T21:48:19.685Z,62.80
2019-01-23T21:50:47.571Z,61.50
2019-01-23T21:53:15.762Z,54.50
2019-01-23T21:55:43.638Z,61.40
2019-01-23T21:58:11.591Z,65.53
2019-01-23T22:00:59.851Z,62.37
2019-01-23T22:03:27.927Z,59.07
2019-01-23T22:05:55.959Z,59.83
2019-01-23T22:08:26.189Z,63.20
2019-01-23T22:10:54.205Z,62.00
2019-01-23T22:13:22.303Z,62.90
2019-01-23T22:15:50.155Z,60.03
2019-01-23T22:18:18.098Z,61.70
2019-01-23T22:20:46.072Z,62.50
2019-01-23T22:23:13.915Z,62.00
2019-01-23T22:25:41.928Z,62.37
2019-01-23T22:28:10.005Z,54.23
2019-01-23T22:30:37.904Z,56.03
2019-01-23T22:33:06.015Z,61.33
2019-01-23T22:35:34.008Z,59.87
2019-01-23T22:38:01.922Z,63.47
2019-01-23T22:40:29.821Z,62.53
2019-01-23T22:42:58.588Z,63.37
2019-01-23T22:45:26.540Z,60.50
2019-01-23T22:47:54.455Z,66.47
2019-01-23T22:50:27.556Z,60.30
2019-01-23T22:52:55.666Z,64.37
2019-01-23T22:55:23.712Z,65.50
2019-01-23T22:57:51.669Z,66.03
2019-01-23T23:00:38.964Z,61.53
2019-01-23T23:03:11.175Z,71.23
2019-01-23T23:05:39.080Z,68.33
2019-01-23T23:08:07.218Z,61.50
2019-01-23T23:10:35.243Z,68.50
2019-01-23T23:13:03.499Z,67.80
2019-01-23T23:15:31.636Z,63.40
2019-01-23T23:17:59.515Z,63.90
2019-01-23T23:20:27.470Z,68.87
2019-01-23T23:22:56.988Z,61.90
2019-01-23T23:25:24.869Z,62.30
2019-01-23T23:27:52.970Z,63.10
2019-01-23T23:30:21.265Z,68.33
2019-01-23T23:32:49.197Z,68.00
2019-01-23T23:35:17.207Z,58.00
2019-01-23T23:37:45.119Z,73.47
2019-01-23T23:40:13.392Z,73.07
2019-01-23T23:42:41.392Z,61.67
2019-01-23T23:45:09.995Z,63.60
2019-01-23T23:47:37.994Z,73.03
2019-01-23T23:50:08.187Z,69.60
2019-01-23T23:52:36.273Z,69.30
2019-01-23T23:55:04.940Z,65.70
2019-01-23T23:57:32.917Z,60.67
